createdAt,value
2019-01-08T00:00:50.044Z,22.30
2019-01-08T00:03:55.982Z,22.30
2019-01-08T00:07:01.744Z,22.30
2019-01-08T00:10:07.622Z,22.30
2019-01-08T00:13:13.480Z,22.20
2019-01-08T00:16:19.238Z,22.20
2019-01-08T00:19:24.883Z,22.20
2019-01-08T00:22:30.514Z,22.20
2019-01-08T00:25:36.189Z,22.30
2019-01-08T00:28:43.283Z,22.20
2019-01-08T00:31:50.335Z,22.20
2019-01-08T00:34:55.992Z,22.20
2019-01-08T00:38:01.648Z,22.20
2019-01-08T00:41:07.427Z,22.20
2019-01-08T00:44:13.286Z,22.20
2019-01-08T00:47:18.935Z,22.20
2019-01-08T00:50:24.563Z,22.20
2019-01-08T00:53:30.326Z,22.10
2019-01-08T00:56:35.994Z,22.10
2019-01-08T00:59:41.649Z,22.10
2019-01-08T01:02:47.274Z,22.10
2019-01-08T01:05:53.778Z,22.10
2019-01-08T01:08:59.406Z,22.10
2019-01-08T01:12:05.054Z,22.10
2019-01-08T01:15:10.731Z,22.00
2019-01-08T01:18:16.382Z,22.10
2019-01-08T01:21:22.010Z,22.10
2019-01-08T01:24:27.661Z,22.00
2019-01-08T01:27:33.339Z,22.10
2019-01-08T01:30:39.098Z,22.00
2019-01-08T01:33:46.452Z,22.00
2019-01-08T01:36:53.047Z,22.00
2019-01-08T01:39:59.610Z,22.00
2019-01-08T01:43:05.264Z,21.90
2019-01-08T01:46:11.026Z,22.00
2019-01-08T01:49:16.703Z,22.00
2019-01-08T01:52:24.191Z,21.90
2019-01-08T01:55:29.851Z,21.90
2019-01-08T01:58:35.583Z,21.90
2019-01-08T02:01:41.230Z,21.80
2019-01-08T02:04:48.619Z,21.80
2019-01-08T02:07:54.298Z,21.80
2019-01-08T02:11:01.572Z,21.80
2019-01-08T02:14:07.222Z,21.80
2019-01-08T02:17:13.017Z,21.80
2019-01-08T02:20:18.650Z,21.80
2019-01-08T02:23:24.343Z,21.80
2019-01-08T02:26:31.664Z,21.70
2019-01-08T02:29:38.391Z,21.70
2019-01-08T02:32:44.027Z,21.70
2019-01-08T02:35:49.718Z,21.70
2019-01-08T02:38:55.340Z,21.70
2019-01-08T02:42:01.235Z,21.70
2019-01-08T02:45:07.140Z,21.70
2019-01-08T02:48:12.907Z,21.70
2019-01-08T02:51:18.569Z,21.70
2019-01-08T02:54:25.440Z,21.60
2019-01-08T02:57:31.067Z,21.60
2019-01-08T03:00:36.958Z,21.60
2019-01-08T03:03:42.602Z,21.60
2019-01-08T03:06:48.258Z,21.60
2019-01-08T03:09:53.906Z,21.60
2019-01-08T03:12:59.535Z,21.60
2019-01-08T03:16:05.194Z,21.60
2019-01-08T03:19:10.950Z,21.60
2019-01-08T03:22:16.626Z,21.50
2019-01-08T03:25:22.279Z,21.50
2019-01-08T03:28:27.902Z,21.50
2019-01-08T03:31:33.558Z,21.50
2019-01-08T03:34:39.206Z,21.50
2019-01-08T03:37:44.887Z,21.50
2019-01-08T03:40:50.538Z,21.50
2019-01-08T03:43:56.163Z,21.40
2019-01-08T03:47:02.763Z,21.40
2019-01-08T03:50:09.618Z,21.30
2019-01-08T03:53:15.297Z,21.20
2019-01-08T03:56:20.954Z,21.10
2019-01-08T03:59:27.712Z,21.10
2019-01-08T04:02:33.358Z,21.10
2019-01-08T04:05:39.034Z,21.00
2019-01-08T04:08:44.687Z,21.00
2019-01-08T04:11:50.396Z,21.00
2019-01-08T04:14:55.971Z,20.90
2019-01-08T04:18:01.646Z,20.90
2019-01-08T04:21:07.306Z,20.80
2019-01-08T04:24:12.926Z,20.80
2019-01-08T04:27:18.611Z,20.80
2019-01-08T04:30:24.255Z,20.80
2019-01-08T04:33:29.918Z,20.80
2019-01-08T04:36:35.639Z,20.80
2019-01-08T04:39:41.326Z,20.80
2019-01-08T04:42:46.819Z,20.70
2019-01-08T04:45:52.650Z,20.70
2019-01-08T04:48:58.326Z,20.70
2019-01-08T04:52:04.087Z,20.60
2019-01-08T04:55:10.734Z,20.60
2019-01-08T04:58:16.413Z,20.60
2019-01-08T05:01:22.062Z,20.60
2019-01-08T05:04:27.794Z,20.60
2019-01-08T05:07:33.447Z,20.50
2019-01-08T05:10:39.123Z,20.50
2019-01-08T05:13:44.774Z,20.50
2019-01-08T05:16:50.398Z,20.60
2019-01-08T05:19:56.062Z,20.60
2019-01-08T05:23:01.738Z,20.60
2019-01-08T05:26:07.387Z,20.50
2019-01-08T05:29:13.114Z,20.60
2019-01-08T05:32:18.830Z,20.60
2019-01-08T05:35:25.565Z,20.60
2019-01-08T05:38:33.274Z,20.60
2019-01-08T05:41:38.926Z,20.70
2019-01-08T05:44:44.646Z,20.70
2019-01-08T05:47:50.410Z,20.80
2019-01-08T05:50:56.121Z,20.80
2019-01-08T05:54:01.726Z,20.80
2019-01-08T05:57:07.430Z,20.90
2019-01-08T06:00:16.580Z,20.90
2019-01-08T06:03:20.534Z,21.00
2019-01-08T06:06:26.168Z,21.00
2019-01-08T06:09:31.896Z,21.00
2019-01-08T06:12:37.598Z,21.00
2019-01-08T06:15:43.475Z,21.10
2019-01-08T06:18:49.090Z,21.10
2019-01-08T06:21:54.807Z,21.10
2019-01-08T06:25:00.677Z,21.20
2019-01-08T06:28:06.522Z,21.20
2019-01-08T06:31:12.135Z,21.20
2019-01-08T06:34:17.898Z,21.20
2019-01-08T06:37:23.544Z,21.20
2019-01-08T06:40:29.302Z,21.20
2019-01-08T06:43:34.955Z,21.20
2019-01-08T06:46:43.162Z,21.20
2019-01-08T06:49:47.998Z,21.20
2019-01-08T06:52:53.623Z,21.20
2019-01-08T06:55:59.274Z,21.20
2019-01-08T06:59:04.966Z,21.20
2019-01-08T07:02:12.407Z,21.20
2019-01-08T07:05:18.104Z,21.20
2019-01-08T07:08:23.731Z,21.30
2019-01-08T07:11:29.383Z,21.20
2019-01-08T07:14:35.063Z,21.30
2019-01-08T07:17:40.967Z,21.30
2019-01-08T07:20:46.546Z,21.30
2019-01-08T07:23:52.203Z,21.30
2019-01-08T07:26:57.870Z,21.30
2019-01-08T07:30:03.534Z,21.30
2019-01-08T07:33:09.155Z,21.30
2019-01-08T07:36:14.811Z,21.40
2019-01-08T07:39:20.483Z,21.40
2019-01-08T07:42:26.145Z,21.40
2019-01-08T07:45:31.769Z,21.40
2019-01-08T07:48:37.456Z,21.40
2019-01-08T07:51:43.094Z,21.40
2019-01-08T07:54:49.836Z,21.40
2019-01-08T07:57:55.530Z,21.40
2019-01-08T08:01:01.182Z,21.40
2019-01-08T08:04:06.839Z,21.40
2019-01-08T08:07:12.463Z,21.40
2019-01-08T08:10:18.138Z,21.40
2019-01-08T08:13:23.798Z,21.30
2019-01-08T08:16:30.446Z,21.40
2019-01-08T08:19:37.932Z,21.40
2019-01-08T08:22:43.620Z,21.40
2019-01-08T08:25:49.253Z,21.30
2019-01-08T08:28:54.923Z,21.40
2019-01-08T08:32:00.608Z,21.40
2019-01-08T08:35:08.486Z,21.40
2019-01-08T08:38:14.239Z,21.40
2019-01-08T08:41:19.878Z,21.40
2019-01-08T08:44:25.623Z,21.60
2019-01-08T08:47:31.306Z,21.90
2019-01-08T08:50:36.931Z,21.90
2019-01-08T08:53:42.582Z,21.90
2019-01-08T08:56:48.260Z,21.80
2019-01-08T08:59:53.892Z,21.70
2019-01-08T09:02:59.563Z,21.70
2019-01-08T09:06:05.154Z,21.70
2019-01-08T09:09:12.481Z,21.70
2019-01-08T09:12:19.270Z,21.70
2019-01-08T09:15:24.934Z,21.60
2019-01-08T09:18:30.688Z,21.60
2019-01-08T09:21:36.347Z,21.60
2019-01-08T09:24:42.218Z,21.60
2019-01-08T09:27:47.886Z,21.50
2019-01-08T09:30:54.643Z,21.60
2019-01-08T09:34:00.288Z,21.50
2019-01-08T09:37:06.007Z,21.60
2019-01-08T09:40:12.706Z,21.60
2019-01-08T09:43:18.412Z,21.70
2019-01-08T09:46:25.111Z,21.80
2019-01-08T09:49:30.833Z,21.90
2019-01-08T09:52:36.355Z,22.10
2019-01-08T09:55:42.126Z,22.20
2019-01-08T09:58:47.739Z,22.30
2019-01-08T10:01:53.455Z,22.40
2019-01-08T10:04:59.071Z,22.50
2019-01-08T10:08:04.895Z,22.70
2019-01-08T10:11:10.581Z,22.70
2019-01-08T10:14:16.255Z,22.90
2019-01-08T10:17:21.882Z,23.00
2019-01-08T10:20:27.537Z,23.10
2019-01-08T10:23:33.190Z,23.20
2019-01-08T10:26:38.843Z,23.30
2019-01-08T10:29:44.470Z,23.40
2019-01-08T10:32:50.151Z,23.40
2019-01-08T10:35:55.798Z,23.60
2019-01-08T10:39:01.562Z,23.60
2019-01-08T10:42:08.826Z,23.80
2019-01-08T10:45:14.506Z,23.90
2019-01-08T10:48:20.151Z,23.90
2019-01-08T10:51:25.779Z,24.00
2019-01-08T10:54:31.539Z,24.10
2019-01-08T10:57:37.218Z,24.20
2019-01-08T11:00:42.846Z,24.20
2019-01-08T11:03:50.130Z,24.20
2019-01-08T11:06:55.806Z,24.30
2019-01-08T11:10:01.466Z,24.30
2019-01-08T11:13:07.214Z,24.20
2019-01-08T11:16:12.871Z,24.20
2019-01-08T11:19:19.630Z,24.20
2019-01-08T11:22:25.510Z,24.20
2019-01-08T11:25:31.258Z,24.20
2019-01-08T11:28:36.914Z,24.20
2019-01-08T11:31:48.729Z,24.20
2019-01-08T11:34:49.972Z,24.20
2019-01-08T11:37:55.587Z,24.20
2019-01-08T11:41:01.271Z,24.20
2019-01-08T11:44:06.930Z,24.30
2019-01-08T11:47:13.002Z,24.30
2019-01-08T11:50:18.715Z,24.30
2019-01-08T11:53:24.398Z,24.30
2019-01-08T11:56:30.035Z,24.40
2019-01-08T11:59:35.699Z,24.40
2019-01-08T12:02:47.730Z,24.40
2019-01-08T12:05:48.716Z,24.50
2019-01-08T12:08:54.396Z,24.40
2019-01-08T12:12:00.046Z,24.50
2019-01-08T12:15:06.414Z,24.50
2019-01-08T12:18:12.178Z,24.40
2019-01-08T12:21:17.798Z,24.40
2019-01-08T12:24:23.455Z,24.50
2019-01-08T12:27:29.131Z,24.40
2019-01-08T12:30:34.884Z,24.40
2019-01-08T12:33:40.524Z,24.40
2019-01-08T12:36:46.705Z,24.40
2019-01-08T12:39:53.915Z,24.50
2019-01-08T12:42:59.508Z,24.50
2019-01-08T12:46:05.186Z,24.50
2019-01-08T12:49:10.944Z,24.50
2019-01-08T12:52:17.595Z,24.50
2019-01-08T12:55:23.388Z,24.50
2019-01-08T12:58:29.023Z,24.50
2019-01-08T13:01:34.831Z,24.50
2019-01-08T13:04:40.591Z,24.50
2019-01-08T13:07:46.270Z,24.50
2019-01-08T13:10:52.015Z,24.60
2019-01-08T13:13:57.795Z,24.60
2019-01-08T13:17:11.163Z,24.60
2019-01-08T13:20:10.606Z,24.50
2019-01-08T13:23:16.331Z,24.50
2019-01-08T13:26:21.941Z,24.50
2019-01-08T13:29:27.714Z,24.50
2019-01-08T13:32:33.326Z,24.60
2019-01-08T13:35:39.019Z,24.60
2019-01-08T13:38:44.655Z,24.60
2019-01-08T13:41:50.334Z,24.60
2019-01-08T13:44:56.110Z,24.60
2019-01-08T13:48:01.962Z,24.60
2019-01-08T13:51:07.788Z,24.70
2019-01-08T13:54:13.574Z,24.70
2019-01-08T13:57:19.477Z,24.70
2019-01-08T14:00:25.294Z,24.70
2019-01-08T14:03:31.009Z,24.70
2019-01-08T14:06:36.698Z,24.70
2019-01-08T14:09:42.391Z,24.70
2019-01-08T14:12:48.213Z,24.70
2019-01-08T14:15:53.925Z,24.70
2019-01-08T14:18:59.620Z,24.70
2019-01-08T14:22:05.211Z,24.70
2019-01-08T14:25:10.903Z,24.70
2019-01-08T14:28:16.539Z,24.70
2019-01-08T14:31:22.191Z,24.70
2019-01-08T14:34:27.814Z,24.70
2019-01-08T14:37:33.598Z,24.60
2019-01-08T14:40:39.350Z,24.40
2019-01-08T14:43:44.983Z,24.30
2019-01-08T14:46:50.631Z,24.10
2019-01-08T14:49:56.419Z,24.00
2019-01-08T14:53:02.474Z,23.90
2019-01-08T14:56:08.131Z,23.80
2019-01-08T14:59:13.850Z,23.80
2019-01-08T15:02:19.615Z,23.70
2019-01-08T15:05:25.483Z,23.70
2019-01-08T15:08:31.278Z,23.80
2019-01-08T15:11:36.907Z,23.70
2019-01-08T15:14:42.763Z,23.70
2019-01-08T15:17:48.386Z,23.70
2019-01-08T15:20:54.172Z,23.70
2019-01-08T15:23:59.820Z,23.70
2019-01-08T15:27:05.587Z,23.70
2019-01-08T15:30:11.943Z,23.60
2019-01-08T15:33:17.604Z,23.60
2019-01-08T15:36:23.226Z,23.60
2019-01-08T15:39:28.883Z,23.60
2019-01-08T15:42:34.554Z,23.60
2019-01-08T15:45:40.322Z,23.60
2019-01-08T15:48:49.998Z,23.60
2019-01-08T15:51:57.031Z,23.60
2019-01-08T15:55:02.922Z,23.60
2019-01-08T15:58:08.532Z,23.60
2019-01-08T16:01:14.187Z,23.60
2019-01-08T16:04:19.866Z,23.60
2019-01-08T16:07:25.522Z,23.60
2019-01-08T16:10:31.143Z,23.60
2019-01-08T16:13:36.807Z,23.60
2019-01-08T16:16:42.475Z,23.60
2019-01-08T16:19:48.226Z,23.60
2019-01-08T16:22:53.885Z,23.60
2019-01-08T16:25:59.611Z,23.60
2019-01-08T16:29:05.291Z,23.60
2019-01-08T16:32:10.911Z,23.60
2019-01-08T16:35:16.601Z,23.60
2019-01-08T16:38:22.351Z,23.70
2019-01-08T16:41:27.987Z,24.00
2019-01-08T16:44:33.754Z,24.20
2019-01-08T16:47:39.617Z,24.50
2019-01-08T16:50:45.490Z,24.60
2019-01-08T16:53:51.096Z,24.70
2019-01-08T16:56:56.821Z,24.80
2019-01-08T17:00:04.241Z,24.90
2019-01-08T17:03:09.966Z,24.90
2019-01-08T17:06:15.658Z,24.90
2019-01-08T17:09:21.370Z,24.90
2019-01-08T17:12:26.986Z,24.80
2019-01-08T17:15:32.758Z,24.80
2019-01-08T17:18:38.394Z,24.80
2019-01-08T17:21:46.100Z,24.80
2019-01-08T17:24:52.751Z,24.80
2019-01-08T17:27:58.567Z,24.80
2019-01-08T17:31:04.194Z,24.80
2019-01-08T17:34:11.013Z,24.70
2019-01-08T17:37:16.710Z,24.80
2019-01-08T17:40:22.403Z,24.70
2019-01-08T17:43:33.439Z,24.80
2019-01-08T17:46:35.538Z,24.80
2019-01-08T17:49:41.167Z,24.90
2019-01-08T17:52:47.760Z,24.90
2019-01-08T17:55:53.822Z,24.90
2019-01-08T17:59:14.826Z,24.90
2019-01-08T18:02:21.291Z,24.90
2019-01-08T18:05:27.438Z,24.70
2019-01-08T18:08:33.222Z,24.50
2019-01-08T18:11:38.971Z,24.30
2019-01-08T18:14:45.943Z,24.10
2019-01-08T18:17:51.893Z,24.00
2019-01-08T18:20:57.691Z,23.90
2019-01-08T18:24:03.462Z,23.80
2019-01-08T18:27:09.181Z,23.80
2019-01-08T18:30:15.134Z,23.70
2019-01-08T18:33:20.995Z,23.70
2019-01-08T18:36:26.622Z,23.70
2019-01-08T18:39:32.298Z,23.70
2019-01-08T18:42:38.062Z,23.70
2019-01-08T18:45:44.114Z,23.70
2019-01-08T18:48:49.755Z,23.70
2019-01-08T18:51:55.421Z,23.60
2019-01-08T18:55:02.071Z,23.70
2019-01-08T18:58:07.746Z,23.70
2019-01-08T19:01:13.417Z,23.60
2019-01-08T19:04:19.027Z,23.70
2019-01-08T19:07:24.682Z,23.70
2019-01-08T19:10:30.366Z,23.70
2019-01-08T19:13:36.088Z,23.60
2019-01-08T19:16:43.099Z,23.60
2019-01-08T19:19:48.755Z,23.60
2019-01-08T19:22:54.378Z,23.60
2019-01-08T19:26:00.137Z,23.60
2019-01-08T19:29:05.966Z,23.50
2019-01-08T19:32:11.682Z,23.50
2019-01-08T19:35:17.846Z,23.50
2019-01-08T19:38:23.489Z,23.50
2019-01-08T19:41:29.360Z,23.40
2019-01-08T19:44:36.130Z,23.40
2019-01-08T19:47:41.882Z,23.40
2019-01-08T19:50:47.562Z,23.40
2019-01-08T19:53:53.502Z,23.40
2019-01-08T19:56:59.251Z,23.40
2019-01-08T20:00:05.666Z,23.40
2019-01-08T20:03:11.373Z,23.30
2019-01-08T20:06:17.106Z,23.30
2019-01-08T20:09:25.528Z,23.30
2019-01-08T20:12:31.795Z,23.30
2019-01-08T20:15:37.474Z,23.30
2019-01-08T20:18:45.291Z,23.30
2019-01-08T20:21:51.244Z,23.30
2019-01-08T20:24:56.989Z,23.30
2019-01-08T20:28:02.740Z,23.30
2019-01-08T20:31:08.434Z,23.30
2019-01-08T20:34:14.018Z,23.20
2019-01-08T20:37:19.806Z,23.20
2019-01-08T20:40:25.527Z,23.20
2019-01-08T20:43:31.246Z,23.10
2019-01-08T20:46:36.862Z,23.10
2019-01-08T20:49:42.686Z,23.10
2019-01-08T20:52:48.387Z,23.00
2019-01-08T20:55:54.151Z,23.00
2019-01-08T20:58:59.752Z,22.90
2019-01-08T21:02:05.701Z,22.90
2019-01-08T21:05:12.415Z,22.90
2019-01-08T21:08:18.142Z,22.80
2019-01-08T21:11:23.823Z,22.90
2019-01-08T21:14:29.596Z,22.80
2019-01-08T21:17:35.330Z,22.70
2019-01-08T21:20:41.078Z,22.70
2019-01-08T21:23:46.814Z,22.70
2019-01-08T21:26:52.579Z,22.60
2019-01-08T21:29:58.264Z,22.60
2019-01-08T21:33:03.944Z,22.60
2019-01-08T21:36:09.554Z,22.50
2019-01-08T21:39:15.229Z,22.50
2019-01-08T21:42:20.862Z,22.50
2019-01-08T21:45:28.327Z,22.50
2019-01-08T21:48:34.115Z,22.40
2019-01-08T21:51:39.873Z,22.40
2019-01-08T21:54:45.494Z,22.40
2019-01-08T21:57:51.175Z,22.40
2019-01-08T22:00:56.826Z,22.50
2019-01-08T22:04:02.586Z,22.50
2019-01-08T22:07:08.226Z,22.50
2019-01-08T22:10:14.274Z,22.60
2019-01-08T22:13:21.858Z,22.60
2019-01-08T22:16:29.411Z,22.50
2019-01-08T22:24:10.272Z,22.60
2019-01-08T22:27:16.047Z,22.50
2019-01-08T22:30:22.703Z,22.40
2019-01-08T22:33:28.374Z,22.40
2019-01-08T22:36:34.110Z,22.30
2019-01-08T22:39:39.882Z,22.30
2019-01-08T22:42:45.650Z,22.30
2019-01-08T22:45:51.275Z,22.30
2019-01-08T22:48:56.946Z,22.30
2019-01-08T22:52:04.298Z,22.30
2019-01-08T22:55:09.967Z,22.40
2019-01-08T22:58:15.542Z,22.40
2019-01-08T23:01:39.422Z,22.40
2019-01-08T23:04:45.178Z,22.40
2019-01-08T23:07:50.802Z,22.40
2019-01-08T23:10:56.488Z,22.40
2019-01-08T23:14:02.242Z,22.40
2019-01-08T23:17:07.996Z,22.40
2019-01-08T23:20:13.622Z,22.40
2019-01-08T23:23:19.298Z,22.40
2019-01-08T23:26:26.064Z,22.40
2019-01-08T23:29:31.731Z,22.30
2019-01-08T23:32:37.360Z,22.30
2019-01-08T23:35:43.322Z,22.30
2019-01-08T23:38:49.000Z,22.30
2019-01-08T23:41:54.626Z,22.30
2019-01-08T23:45:00.279Z,22.30
2019-01-08T23:48:06.151Z,22.20
2019-01-08T23:51:11.783Z,22.20
2019-01-08T23:54:19.662Z,22.20
2019-01-08T23:57:25.851Z,22.20
